sensor_id;sensor_type;location;lat;lon;timestamp;pressure;altitude;pressure_sealevel;temperature;humidity
37238;BME280;23129;49.662;8.448;2023-03-19T00:01:04;100400.56;;;11.55;71.27
37238;BME280;23129;49.662;8.448;2023-03-19T00:03:34;100409.38;;;11.52;71.20
37238;BME280;23129;49.662;8.448;2023-03-19T00:06:03;100404.16;;;11.51;71.21
37238;BME280;23129;49.662;8.448;2023-03-19T00:08:31;100397.19;;;11.50;71.50
37238;BME280;23129;49.662;8.448;2023-03-19T00:11:05;100400.75;;;11.49;71.53
37238;BME280;23129;49.662;8.448;2023-03-19T00:13:34;100399.00;;;11.48;71.70
37238;BME280;23129;49.662;8.448;2023-03-19T00:16:05;100409.63;;;11.45;71.61
37238;BME280;23129;49.662;8.448;2023-03-19T00:18:34;100409.81;;;11.38;71.82
37238;BME280;23129;49.662;8.448;2023-03-19T00:21:03;100410.00;;;11.32;71.97
37238;BME280;23129;49.662;8.448;2023-03-19T00:23:32;100401.41;;;11.27;72.22
37238;BME280;23129;49.662;8.448;2023-03-19T00:26:00;100411.16;;;11.24;72.21
37238;BME280;23129;49.662;8.448;2023-03-19T00:28:29;100412.06;;;11.23;72.32
37238;BME280;23129;49.662;8.448;2023-03-19T00:31:06;100405.13;;;11.20;72.36
37238;BME280;23129;49.662;8.448;2023-03-19T00:33:35;100403.44;;;11.19;72.57
37238;BME280;23129;49.662;8.448;2023-03-19T00:36:04;100413.94;;;11.19;72.58
37238;BME280;23129;49.662;8.448;2023-03-19T00:38:34;100414.81;;;11.18;72.49
37238;BME280;23129;49.662;8.448;2023-03-19T00:41:03;100414.78;;;11.19;72.49
37238;BME280;23129;49.662;8.448;2023-03-19T00:43:32;100421.75;;;11.20;72.39
37238;BME280;23129;49.662;8.448;2023-03-19T00:46:00;100420.81;;;11.23;72.45
37238;BME280;23129;49.662;8.448;2023-03-19T00:48:30;100417.25;;;11.24;72.31
37238;BME280;23129;49.662;8.448;2023-03-19T00:51:02;100414.63;;;11.24;72.09
37238;BME280;23129;49.662;8.448;2023-03-19T00:53:31;100418.06;;;11.26;72.36
37238;BME280;23129;49.662;8.448;2023-03-19T00:56:00;100416.31;;;11.27;72.25
37238;BME280;23129;49.662;8.448;2023-03-19T00:58:29;100429.41;;;11.28;72.19
37238;BME280;23129;49.662;8.448;2023-03-19T01:00:58;100432.06;;;11.27;72.36
37238;BME280;23129;49.662;8.448;2023-03-19T01:03:27;100422.41;;;11.27;72.27
37238;BME280;23129;49.662;8.448;2023-03-19T01:05:58;100419.00;;;11.25;72.41
37238;BME280;23129;49.662;8.448;2023-03-19T01:08:27;100420.69;;;11.26;72.43
37238;BME280;23129;49.662;8.448;2023-03-19T01:11:03;100422.50;;;11.24;72.58
37238;BME280;23129;49.662;8.448;2023-03-19T01:13:31;100413.13;;;11.17;72.99
37238;BME280;23129;49.662;8.448;2023-03-19T01:15:59;100410.50;;;11.17;72.79
37238;BME280;23129;49.662;8.448;2023-03-19T01:18:28;100406.16;;;11.16;72.96
37238;BME280;23129;49.662;8.448;2023-03-19T01:20:58;100403.53;;;11.16;73.13
37238;BME280;23129;49.662;8.448;2023-03-19T01:23:28;100404.47;;;11.13;73.04
37238;BME280;23129;49.662;8.448;2023-03-19T01:25:56;100401.09;;;11.10;73.19
37238;BME280;23129;49.662;8.448;2023-03-19T01:28:26;100395.13;;;11.05;73.39
37238;BME280;23129;49.662;8.448;2023-03-19T01:30:58;100410.97;;;11.02;73.35
37238;BME280;23129;49.662;8.448;2023-03-19T01:33:45;100399.72;;;10.96;73.33
37238;BME280;23129;49.662;8.448;2023-03-19T01:36:27;100411.25;;;10.92;73.52
37238;BME280;23129;49.662;8.448;2023-03-19T01:39:00;100415.72;;;10.89;73.64
37238;BME280;23129;49.662;8.448;2023-03-19T01:41:29;100409.75;;;10.84;73.58
37238;BME280;23129;49.662;8.448;2023-03-19T01:44:29;100413.41;;;10.78;73.53
37238;BME280;23129;49.662;8.448;2023-03-19T01:47:28;100405.56;;;10.77;74.05
37238;BME280;23129;49.662;8.448;2023-03-19T01:50:23;100406.53;;;10.74;73.75
37238;BME280;23129;49.662;8.448;2023-03-19T01:53:12;100406.44;;;10.77;73.84
37238;BME280;23129;49.662;8.448;2023-03-19T01:56:03;100397.69;;;10.77;73.82
37238;BME280;23129;49.662;8.448;2023-03-19T01:58:44;100399.38;;;10.79;73.56
37238;BME280;23129;49.662;8.448;2023-03-19T02:01:33;100408.97;;;10.80;73.59
37238;BME280;23129;49.662;8.448;2023-03-19T02:04:04;100413.41;;;10.78;73.43
37238;BME280;23129;49.662;8.448;2023-03-19T02:06:35;100399.47;;;10.76;73.70
37238;BME280;23129;49.662;8.448;2023-03-19T02:09:05;100406.53;;;10.74;73.77
37238;BME280;23129;49.662;8.448;2023-03-19T02:11:33;100406.56;;;10.72;73.67
37238;BME280;23129;49.662;8.448;2023-03-19T02:14:02;100417.13;;;10.71;73.68
37238;BME280;23129;49.662;8.448;2023-03-19T02:16:31;100413.66;;;10.69;73.67
37238;BME280;23129;49.662;8.448;2023-03-19T02:19:00;100415.56;;;10.64;73.78
37238;BME280;23129;49.662;8.448;2023-03-19T02:21:29;100421.75;;;10.61;73.90
37238;BME280;23129;49.662;8.448;2023-03-19T02:24:06;100421.91;;;10.57;73.98
37238;BME280;23129;49.662;8.448;2023-03-19T02:26:57;100424.59;;;10.54;74.15
37238;BME280;23129;49.662;8.448;2023-03-19T02:29:26;100421.16;;;10.51;73.98
37238;BME280;23129;49.662;8.448;2023-03-19T02:31:58;100418.59;;;10.50;74.02
37238;BME280;23129;49.662;8.448;2023-03-19T02:34:36;100409.91;;;10.48;74.25
37238;BME280;23129;49.662;8.448;2023-03-19T02:37:11;100416.00;;;10.48;74.33
37238;BME280;23129;49.662;8.448;2023-03-19T02:39:54;100417.78;;;10.46;74.36
37238;BME280;23129;49.662;8.448;2023-03-19T02:42:28;100416.91;;;10.47;74.36
37238;BME280;23129;49.662;8.448;2023-03-19T02:44:57;100415.16;;;10.48;74.44
37238;BME280;23129;49.662;8.448;2023-03-19T02:47:26;100420.31;;;10.49;74.46
37238;BME280;23129;49.662;8.448;2023-03-19T02:49:55;100429.09;;;10.50;74.43
37238;BME280;23129;49.662;8.448;2023-03-19T02:52:25;100435.22;;;10.49;74.62
37238;BME280;23129;49.662;8.448;2023-03-19T02:54:54;100432.66;;;10.46;74.34
37238;BME280;23129;49.662;8.448;2023-03-19T02:57:25;100438.09;;;10.40;74.57
37238;BME280;23129;49.662;8.448;2023-03-19T02:59:53;100446.16;;;10.32;74.92
37238;BME280;23129;49.662;8.448;2023-03-19T03:02:22;100439.28;;;10.28;74.90
37238;BME280;23129;49.662;8.448;2023-03-19T03:04:50;100439.28;;;10.28;75.04
37238;BME280;23129;49.662;8.448;2023-03-19T03:07:19;100437.56;;;10.27;75.10
37238;BME280;23129;49.662;8.448;2023-03-19T03:09:48;100431.47;;;10.26;75.11
37238;BME280;23129;49.662;8.448;2023-03-19T03:12:17;100433.19;;;10.27;75.04
37238;BME280;23129;49.662;8.448;2023-03-19T03:14:46;100437.47;;;10.30;75.04
37238;BME280;23129;49.662;8.448;2023-03-19T03:17:15;100446.16;;;10.32;75.01
37238;BME280;23129;49.662;8.448;2023-03-19T03:19:44;100447.81;;;10.35;74.99
37238;BME280;23129;49.662;8.448;2023-03-19T03:22:12;100443.38;;;10.38;74.83
37238;BME280;23129;49.662;8.448;2023-03-19T03:24:41;100438.84;;;10.43;75.01
37238;BME280;23129;49.662;8.448;2023-03-19T03:27:09;100441.38;;;10.48;74.75
37238;BME280;23129;49.662;8.448;2023-03-19T03:29:38;100447.34;;;10.53;74.82
37238;BME280;23129;49.662;8.448;2023-03-19T03:32:09;100449.00;;;10.56;74.60
37238;BME280;23129;49.662;8.448;2023-03-19T03:34:37;100448.91;;;10.59;74.77
37238;BME280;23129;49.662;8.448;2023-03-19T03:37:06;100441.88;;;10.61;74.72
37238;BME280;23129;49.662;8.448;2023-03-19T03:39:35;100444.41;;;10.64;74.80
37238;BME280;23129;49.662;8.448;2023-03-19T03:42:04;100453.97;;;10.66;74.80
37238;BME280;23129;49.662;8.448;2023-03-19T03:44:33;100459.19;;;10.68;74.84
37238;BME280;23129;49.662;8.448;2023-03-19T03:47:03;100457.34;;;10.70;74.73
37238;BME280;23129;49.662;8.448;2023-03-19T03:49:32;100460.81;;;10.72;74.95
37238;BME280;23129;49.662;8.448;2023-03-19T03:52:01;100459.88;;;10.73;74.91
37238;BME280;23129;49.662;8.448;2023-03-19T03:54:30;100462.50;;;10.73;75.01
37238;BME280;23129;49.662;8.448;2023-03-19T03:56:58;100466.81;;;10.76;74.96
37238;BME280;23129;49.662;8.448;2023-03-19T03:59:30;100464.16;;;10.77;75.37
37238;BME280;23129;49.662;8.448;2023-03-19T04:01:58;100468.50;;;10.78;74.95
37238;BME280;23129;49.662;8.448;2023-03-19T04:04:27;100464.16;;;10.77;75.21
37238;BME280;23129;49.662;8.448;2023-03-19T04:06:57;100466.72;;;10.79;75.16
37238;BME280;23129;49.662;8.448;2023-03-19T04:09:33;100466.72;;;10.79;75.19
37238;BME280;23129;49.662;8.448;2023-03-19T04:12:02;100474.56;;;10.80;75.24
37238;BME280;23129;49.662;8.448;2023-03-19T04:14:31;100465.88;;;10.78;75.49
37238;BME280;23129;49.662;8.448;2023-03-19T04:16:59;100477.22;;;10.79;75.41
37238;BME280;23129;49.662;8.448;2023-03-19T04:19:28;100478.16;;;10.76;75.71
37238;BME280;23129;49.662;8.448;2023-03-19T04:21:59;100478.16;;;10.76;75.48
37238;BME280;23129;49.662;8.448;2023-03-19T04:24:31;100476.47;;;10.75;75.62
37238;BME280;23129;49.662;8.448;2023-03-19T04:26:59;100480.84;;;10.74;75.77
37238;BME280;23129;49.662;8.448;2023-03-19T04:29:29;100482.63;;;10.74;75.87
37238;BME280;23129;49.662;8.448;2023-03-19T04:31:58;100483.41;;;10.76;75.94
37238;BME280;23129;49.662;8.448;2023-03-19T04:34:27;100483.41;;;10.76;75.94
37238;BME280;23129;49.662;8.448;2023-03-19T04:36:57;100491.28;;;10.76;75.90
37238;BME280;23129;49.662;8.448;2023-03-19T04:39:26;100493.03;;;10.77;75.88
37238;BME280;23129;49.662;8.448;2023-03-19T04:41:55;100492.13;;;10.78;76.02
37238;BME280;23129;49.662;8.448;2023-03-19T04:44:28;100492.13;;;10.78;76.11
37238;BME280;23129;49.662;8.448;2023-03-19T04:46:59;100491.25;;;10.78;76.18
37238;BME280;23129;49.662;8.448;2023-03-19T04:49:33;100493.88;;;10.78;76.15
37238;BME280;23129;49.662;8.448;2023-03-19T04:52:04;100502.63;;;10.77;76.26
37238;BME280;23129;49.662;8.448;2023-03-19T04:54:33;100497.44;;;10.75;76.68
37238;BME280;23129;49.662;8.448;2023-03-19T04:57:02;100502.78;;;10.72;76.71
37238;BME280;23129;49.662;8.448;2023-03-19T04:59:35;100503.78;;;10.68;76.83
37238;BME280;23129;49.662;8.448;2023-03-19T05:02:04;100513.44;;;10.66;76.84
37238;BME280;23129;49.662;8.448;2023-03-19T05:04:35;100503.03;;;10.63;76.94
37238;BME280;23129;49.662;8.448;2023-03-19T05:07:09;100504.81;;;10.61;77.28
37238;BME280;23129;49.662;8.448;2023-03-19T05:09:38;100499.66;;;10.58;77.38
37238;BME280;23129;49.662;8.448;2023-03-19T05:12:06;100501.47;;;10.56;77.40
37238;BME280;23129;49.662;8.448;2023-03-19T05:14:41;100505.00;;;10.55;77.58
37238;BME280;23129;49.662;8.448;2023-03-19T05:17:19;100511.94;;;10.56;77.66
37238;BME280;23129;49.662;8.448;2023-03-19T05:20:10;100517.25;;;10.54;77.62
37238;BME280;23129;49.662;8.448;2023-03-19T05:22:46;100518.16;;;10.53;77.79
37238;BME280;23129;49.662;8.448;2023-03-19T05:25:17;100518.16;;;10.53;77.71
37238;BME280;23129;49.662;8.448;2023-03-19T05:27:46;100517.28;;;10.52;77.87
37238;BME280;23129;49.662;8.448;2023-03-19T05:30:18;100520.81;;;10.51;78.05
37238;BME280;23129;49.662;8.448;2023-03-19T05:33:09;100515.56;;;10.51;77.89
37238;BME280;23129;49.662;8.448;2023-03-19T05:35:41;100514.72;;;10.51;78.09
37238;BME280;23129;49.662;8.448;2023-03-19T05:38:19;100519.09;;;10.50;78.17
37238;BME280;23129;49.662;8.448;2023-03-19T05:40:55;100524.44;;;10.47;78.20
37238;BME280;23129;49.662;8.448;2023-03-19T05:43:30;100522.69;;;10.46;78.19
37238;BME280;23129;49.662;8.448;2023-03-19T05:46:03;100524.53;;;10.43;78.51
37238;BME280;23129;49.662;8.448;2023-03-19T05:48:33;100538.56;;;10.42;78.56
37238;BME280;23129;49.662;8.448;2023-03-19T05:51:03;100537.63;;;10.43;78.46
37238;BME280;23129;49.662;8.448;2023-03-19T05:53:38;100545.56;;;10.41;78.62
37238;BME280;23129;49.662;8.448;2023-03-19T05:56:42;100545.63;;;10.38;78.74
37238;BME280;23129;49.662;8.448;2023-03-19T05:59:22;100549.13;;;10.39;78.88
37238;BME280;23129;49.662;8.448;2023-03-19T06:02:03;100549.13;;;10.37;79.04
37238;BME280;23129;49.662;8.448;2023-03-19T06:04:32;100542.19;;;10.36;79.13
37238;BME280;23129;49.662;8.448;2023-03-19T06:07:01;100537.81;;;10.37;79.25
37238;BME280;23129;49.662;8.448;2023-03-19T06:09:32;100545.63;;;10.38;79.27
37238;BME280;23129;49.662;8.448;2023-03-19T06:12:01;100549.06;;;10.40;79.33
37238;BME280;23129;49.662;8.448;2023-03-19T06:14:49;100547.28;;;10.42;79.21
37238;BME280;23129;49.662;8.448;2023-03-19T06:17:36;100548.09;;;10.44;79.35
37238;BME280;23129;49.662;8.448;2023-03-19T06:20:10;100544.50;;;10.48;79.29
37238;BME280;23129;49.662;8.448;2023-03-19T06:22:40;100551.38;;;10.52;79.33
37238;BME280;23129;49.662;8.448;2023-03-19T06:25:10;100552.19;;;10.56;79.38
37238;BME280;23129;49.662;8.448;2023-03-19T06:27:41;100555.56;;;10.60;79.32
37238;BME280;23129;49.662;8.448;2023-03-19T06:30:21;100560.72;;;10.63;79.20
37238;BME280;23129;49.662;8.448;2023-03-19T06:32:50;100557.97;;;10.67;79.08
37238;BME280;23129;49.662;8.448;2023-03-19T06:35:20;100564.88;;;10.71;79.17
37238;BME280;23129;49.662;8.448;2023-03-19T06:37:49;100562.13;;;10.76;79.27
37238;BME280;23129;49.662;8.448;2023-03-19T06:40:19;100565.50;;;10.81;79.24
37238;BME280;23129;49.662;8.448;2023-03-19T06:42:48;100563.63;;;10.86;79.16
37238;BME280;23129;49.662;8.448;2023-03-19T06:45:18;100561.69;;;10.91;79.04
37238;BME280;23129;49.662;8.448;2023-03-19T06:47:46;100565.06;;;10.96;79.16
37238;BME280;23129;49.662;8.448;2023-03-19T06:50:15;100566.69;;;11.01;78.96
37238;BME280;23129;49.662;8.448;2023-03-19T06:52:44;100570.91;;;11.06;79.15
37238;BME280;23129;49.662;8.448;2023-03-19T06:55:13;100571.72;;;11.10;79.04
37238;BME280;23129;49.662;8.448;2023-03-19T06:57:42;100569.00;;;11.13;79.03
37238;BME280;23129;49.662;8.448;2023-03-19T07:00:16;100572.34;;;11.18;79.05
37238;BME280;23129;49.662;8.448;2023-03-19T07:02:44;100576.63;;;11.22;79.07
37238;BME280;23129;49.662;8.448;2023-03-19T07:05:13;100577.50;;;11.21;79.26
37238;BME280;23129;49.662;8.448;2023-03-19T07:07:41;100582.72;;;11.23;79.13
37238;BME280;23129;49.662;8.448;2023-03-19T07:10:10;100582.66;;;11.24;79.41
37238;BME280;23129;49.662;8.448;2023-03-19T07:12:39;100582.56;;;11.27;79.15
37238;BME280;23129;49.662;8.448;2023-03-19T07:15:09;100586.09;;;11.28;79.43
37238;BME280;23129;49.662;8.448;2023-03-19T07:17:38;100581.59;;;11.31;79.58
37238;BME280;23129;49.662;8.448;2023-03-19T07:20:08;100593.81;;;11.32;79.27
37238;BME280;23129;49.662;8.448;2023-03-19T07:22:37;100590.28;;;11.33;79.35
37238;BME280;23129;49.662;8.448;2023-03-19T07:25:06;100597.28;;;11.34;79.52
37238;BME280;23129;49.662;8.448;2023-03-19T07:27:35;100599.91;;;11.34;79.54
37238;BME280;23129;49.662;8.448;2023-03-19T07:30:04;100600.69;;;11.36;79.70
37238;BME280;23129;49.662;8.448;2023-03-19T07:32:34;100585.00;;;11.35;79.78
37238;BME280;23129;49.662;8.448;2023-03-19T07:35:03;100592.03;;;11.34;79.61
37238;BME280;23129;49.662;8.448;2023-03-19T07:37:32;100590.28;;;11.33;79.88
37238;BME280;23129;49.662;8.448;2023-03-19T07:40:01;100593.72;;;11.35;79.83
37238;BME280;23129;49.662;8.448;2023-03-19T07:42:29;100590.19;;;11.36;80.06
37238;BME280;23129;49.662;8.448;2023-03-19T07:44:58;100603.22;;;11.39;80.08
37238;BME280;23129;49.662;8.448;2023-03-19T07:47:28;100602.34;;;11.40;80.09
37238;BME280;23129;49.662;8.448;2023-03-19T07:49:58;100597.00;;;11.43;79.73
37238;BME280;23129;49.662;8.448;2023-03-19T07:52:27;100603.97;;;11.45;80.03
37238;BME280;23129;49.662;8.448;2023-03-19T07:54:55;100602.09;;;11.50;80.24
37238;BME280;23129;49.662;8.448;2023-03-19T07:57:23;100608.09;;;11.53;80.01
37238;BME280;23129;49.662;8.448;2023-03-19T07:59:53;100604.44;;;11.59;80.14
37238;BME280;23129;49.662;8.448;2023-03-19T08:02:21;100603.34;;;11.66;80.13
37238;BME280;23129;49.662;8.448;2023-03-19T08:04:50;100602.28;;;11.72;80.01
37238;BME280;23129;49.662;8.448;2023-03-19T08:07:20;100597.69;;;11.80;79.96
37238;BME280;23129;49.662;8.448;2023-03-19T08:09:49;100599.19;;;11.88;80.04
37238;BME280;23129;49.662;8.448;2023-03-19T08:12:17;100598.91;;;11.98;79.88
37238;BME280;23129;49.662;8.448;2023-03-19T08:14:46;100595.06;;;12.08;79.78
37238;BME280;23129;49.662;8.448;2023-03-19T08:17:15;100589.31;;;12.23;79.68
37238;BME280;23129;49.662;8.448;2023-03-19T08:19:43;100591.63;;;12.34;79.60
37238;BME280;23129;49.662;8.448;2023-03-19T08:22:13;100595.53;;;12.47;79.49
37238;BME280;23129;49.662;8.448;2023-03-19T08:24:42;100589.81;;;12.61;79.16
37238;BME280;23129;49.662;8.448;2023-03-19T08:27:11;100596.53;;;12.71;78.75
37238;BME280;23129;49.662;8.448;2023-03-19T08:29:39;100594.34;;;12.83;78.62
37238;BME280;23129;49.662;8.448;2023-03-19T08:32:08;100588.53;;;12.98;78.37
37238;BME280;23129;49.662;8.448;2023-03-19T08:34:37;100590.59;;;13.15;78.10
37238;BME280;23129;49.662;8.448;2023-03-19T08:37:05;100587.38;;;13.32;77.71
37238;BME280;23129;49.662;8.448;2023-03-19T08:39:34;100600.78;;;13.49;77.47
37238;BME280;23129;49.662;8.448;2023-03-19T08:42:04;100594.16;;;13.61;77.00
37238;BME280;23129;49.662;8.448;2023-03-19T08:44:32;100606.97;;;13.72;76.81
37238;BME280;23129;49.662;8.448;2023-03-19T08:47:01;100601.31;;;13.81;76.49
37238;BME280;23129;49.662;8.448;2023-03-19T08:49:30;100597.31;;;13.94;76.47
37238;BME280;23129;49.662;8.448;2023-03-19T08:51:58;100601.97;;;14.09;76.11
37238;BME280;23129;49.662;8.448;2023-03-19T08:54:27;100603.06;;;14.26;75.82
37238;BME280;23129;49.662;8.448;2023-03-19T08:56:55;100602.56;;;14.38;74.75
37238;BME280;23129;49.662;8.448;2023-03-19T08:59:25;100598.28;;;14.57;74.42
37238;BME280;23129;49.662;8.448;2023-03-19T09:01:53;100598.09;;;14.82;73.51
37238;BME280;23129;49.662;8.448;2023-03-19T09:04:22;100597.75;;;15.11;72.97
37238;BME280;23129;49.662;8.448;2023-03-19T09:06:51;100598.09;;;15.42;71.78
37238;BME280;23129;49.662;8.448;2023-03-19T09:09:22;100598.81;;;15.65;70.46
37238;BME280;23129;49.662;8.448;2023-03-19T09:11:51;100597.34;;;15.78;69.97
37238;BME280;23129;49.662;8.448;2023-03-19T09:14:19;100600.56;;;15.85;69.21
37238;BME280;23129;49.662;8.448;2023-03-19T09:16:52;100611.84;;;15.88;69.35
37238;BME280;23129;49.662;8.448;2023-03-19T09:19:22;100601.00;;;15.94;69.06
37238;BME280;23129;49.662;8.448;2023-03-19T09:21:50;100594.97;;;16.10;67.78
37238;BME280;23129;49.662;8.448;2023-03-19T09:24:19;100607.47;;;16.42;67.23
37238;BME280;23129;49.662;8.448;2023-03-19T09:26:47;100608.78;;;16.87;65.66
37238;BME280;23129;49.662;8.448;2023-03-19T09:29:16;100612.63;;;17.15;65.38
37238;BME280;23129;49.662;8.448;2023-03-19T09:31:45;100604.25;;;17.23;63.89
37238;BME280;23129;49.662;8.448;2023-03-19T09:34:15;100612.16;;;17.24;64.24
37238;BME280;23129;49.662;8.448;2023-03-19T09:36:45;100601.00;;;17.51;63.37
37238;BME280;23129;49.662;8.448;2023-03-19T09:39:13;100599.19;;;17.85;61.37
37238;BME280;23129;49.662;8.448;2023-03-19T09:41:56;100599.09;;;18.02;61.74
37238;BME280;23129;49.662;8.448;2023-03-19T09:44:32;100606.78;;;18.07;61.06
37238;BME280;23129;49.662;8.448;2023-03-19T09:47:19;100613.50;;;17.98;61.30
37238;BME280;23129;49.662;8.448;2023-03-19T09:49:55;100610.75;;;17.84;60.95
37238;BME280;23129;49.662;8.448;2023-03-19T09:52:36;100608.91;;;17.68;60.75
37238;BME280;23129;49.662;8.448;2023-03-19T09:55:17;100612.13;;;17.57;60.39
37238;BME280;23129;49.662;8.448;2023-03-19T09:57:47;100611.69;;;17.49;59.78
37238;BME280;23129;49.662;8.448;2023-03-19T10:00:22;100608.44;;;17.44;59.91
37238;BME280;23129;49.662;8.448;2023-03-19T10:02:55;100621.94;;;17.40;57.89
37238;BME280;23129;49.662;8.448;2023-03-19T10:05:43;100604.38;;;17.37;58.33
37238;BME280;23129;49.662;8.448;2023-03-19T10:08:49;100607.88;;;17.38;57.10
37238;BME280;23129;49.662;8.448;2023-03-19T10:11:36;100598.91;;;17.40;57.18
37238;BME280;23129;49.662;8.448;2023-03-19T10:14:38;100612.88;;;17.44;56.91
37238;BME280;23129;49.662;8.448;2023-03-19T10:17:16;100610.31;;;17.42;56.45
37238;BME280;23129;49.662;8.448;2023-03-19T10:19:51;100612.13;;;17.42;55.39
37238;BME280;23129;49.662;8.448;2023-03-19T10:22:26;100603.88;;;17.46;56.32
37238;BME280;23129;49.662;8.448;2023-03-19T10:24:56;100606.47;;;17.48;55.95
37238;BME280;23129;49.662;8.448;2023-03-19T10:27:28;100598.53;;;17.48;55.10
37238;BME280;23129;49.662;8.448;2023-03-19T10:29:57;100609.75;;;17.53;54.44
37238;BME280;23129;49.662;8.448;2023-03-19T10:32:33;100597.50;;;17.66;54.85
37238;BME280;23129;49.662;8.448;2023-03-19T10:35:15;100599.94;;;18.02;54.07
37238;BME280;23129;49.662;8.448;2023-03-19T10:37:47;100593.91;;;18.31;52.77
37238;BME280;23129;49.662;8.448;2023-03-19T10:40:21;100598.53;;;18.43;52.36
37238;BME280;23129;49.662;8.448;2023-03-19T10:43:05;100588.53;;;18.62;52.50
37238;BME280;23129;49.662;8.448;2023-03-19T10:45:35;100581.03;;;18.99;51.70
37238;BME280;23129;49.662;8.448;2023-03-19T10:48:05;100590.66;;;19.45;51.43
37238;BME280;23129;49.662;8.448;2023-03-19T10:50:47;100592.25;;;19.76;50.01
37238;BME280;23129;49.662;8.448;2023-03-19T10:53:31;100593.56;;;19.83;48.44
37238;BME280;23129;49.662;8.448;2023-03-19T10:56:03;100587.09;;;19.87;48.85
37238;BME280;23129;49.662;8.448;2023-03-19T10:58:34;100579.78;;;19.91;48.87
37238;BME280;23129;49.662;8.448;2023-03-19T11:01:05;100578.06;;;19.90;48.31
37238;BME280;23129;49.662;8.448;2023-03-19T11:03:38;100579.38;;;19.97;48.25
37238;BME280;23129;49.662;8.448;2023-03-19T11:06:17;100579.09;;;20.01;47.63
37238;BME280;23129;49.662;8.448;2023-03-19T11:08:55;100577.59;;;19.83;47.77
37238;BME280;23129;49.662;8.448;2023-03-19T11:11:26;100575.31;;;19.77;47.55
37238;BME280;23129;49.662;8.448;2023-03-19T11:14:06;100588.34;;;19.81;46.71
37238;BME280;23129;49.662;8.448;2023-03-19T11:16:54;100568.28;;;19.90;46.94
37238;BME280;23129;49.662;8.448;2023-03-19T11:19:26;100575.41;;;20.17;46.15
37238;BME280;23129;49.662;8.448;2023-03-19T11:22:02;100581.38;;;20.20;46.30
37238;BME280;23129;49.662;8.448;2023-03-19T11:24:39;100581.22;;;20.09;46.67
37238;BME280;23129;49.662;8.448;2023-03-19T11:27:09;100578.28;;;19.87;47.05
37238;BME280;23129;49.662;8.448;2023-03-19T11:29:41;100559.00;;;19.69;47.18
37238;BME280;23129;49.662;8.448;2023-03-19T11:32:29;100561.28;;;19.60;47.26
37238;BME280;23129;49.662;8.448;2023-03-19T11:35:03;100560.16;;;19.65;46.53
37238;BME280;23129;49.662;8.448;2023-03-19T11:37:49;100563.28;;;19.57;46.38
37238;BME280;23129;49.662;8.448;2023-03-19T11:40:30;100568.63;;;19.43;46.21
37238;BME280;23129;49.662;8.448;2023-03-19T11:43:28;100568.59;;;19.14;46.22
37238;BME280;23129;49.662;8.448;2023-03-19T11:46:26;100568.41;;;18.88;46.42
37238;BME280;23129;49.662;8.448;2023-03-19T11:49:41;100565.38;;;18.64;46.56
37238;BME280;23129;49.662;8.448;2023-03-19T11:52:19;100565.72;;;18.44;46.41
37238;BME280;23129;49.662;8.448;2023-03-19T11:55:12;100565.66;;;18.30;46.86
37238;BME280;23129;49.662;8.448;2023-03-19T11:58:14;100564.31;;;18.22;46.89
37238;BME280;23129;49.662;8.448;2023-03-19T12:00:50;100561.59;;;18.08;46.79
37238;BME280;23129;49.662;8.448;2023-03-19T12:06:36;100562.44;;;17.77;47.70
37238;BME280;23129;49.662;8.448;2023-03-19T12:09:16;100567.56;;;17.64;47.75
37238;BME280;23129;49.662;8.448;2023-03-19T12:11:52;100569.97;;;17.53;48.12
37238;BME280;23129;49.662;8.448;2023-03-19T12:14:34;100565.22;;;17.42;48.23
37238;BME280;23129;49.662;8.448;2023-03-19T12:17:28;100573.16;;;17.26;48.92
37238;BME280;23129;49.662;8.448;2023-03-19T12:20:15;100578.81;;;17.20;49.14
37238;BME280;23129;49.662;8.448;2023-03-19T12:22:59;100572.88;;;17.15;49.31
37238;BME280;23129;49.662;8.448;2023-03-19T12:25:49;100567.91;;;17.09;49.14
37238;BME280;23129;49.662;8.448;2023-03-19T12:28:24;100571.56;;;17.06;49.42
37238;BME280;23129;49.662;8.448;2023-03-19T12:31:14;100579.75;;;17.02;49.49
37238;BME280;23129;49.662;8.448;2023-03-19T12:33:50;100584.28;;;17.00;49.45
37238;BME280;23129;49.662;8.448;2023-03-19T12:36:27;100585.84;;;16.86;50.84
37238;BME280;23129;49.662;8.448;2023-03-19T12:39:01;100586.75;;;16.68;51.97
37238;BME280;23129;49.662;8.448;2023-03-19T12:41:35;100596.59;;;16.49;53.60
37238;BME280;23129;49.662;8.448;2023-03-19T12:44:10;100591.25;;;16.31;54.88
37238;BME280;23129;49.662;8.448;2023-03-19T12:46:44;100603.94;;;16.25;55.50
37238;BME280;23129;49.662;8.448;2023-03-19T12:49:20;100595.28;;;16.21;56.13
37238;BME280;23129;49.662;8.448;2023-03-19T12:51:56;100607.91;;;16.16;57.14
37238;BME280;23129;49.662;8.448;2023-03-19T12:54:32;100593.06;;;16.12;57.49
37238;BME280;23129;49.662;8.448;2023-03-19T12:57:04;100608.69;;;15.99;57.79
37238;BME280;23129;49.662;8.448;2023-03-19T12:59:38;100608.00;;;15.95;58.60
37238;BME280;23129;49.662;8.448;2023-03-19T13:02:20;100611.00;;;15.88;59.32
37238;BME280;23129;49.662;8.448;2023-03-19T13:04:55;100611.84;;;15.88;59.55
37238;BME280;23129;49.662;8.448;2023-03-19T13:07:30;100617.28;;;15.85;59.83
37238;BME280;23129;49.662;8.448;2023-03-19T13:10:07;100613.88;;;15.83;60.17
37238;BME280;23129;49.662;8.448;2023-03-19T13:12:37;100633.56;;;15.76;60.82
37238;BME280;23129;49.662;8.448;2023-03-19T13:15:10;100624.66;;;15.58;61.81
37238;BME280;23129;49.662;8.448;2023-03-19T13:17:54;100611.56;;;15.36;62.94
37238;BME280;23129;49.662;8.448;2023-03-19T13:20:33;100625.75;;;15.15;63.97
37238;BME280;23129;49.662;8.448;2023-03-19T13:23:13;100636.13;;;14.99;64.63
37238;BME280;23129;49.662;8.448;2023-03-19T13:25:48;100638.38;;;14.88;65.47